sensor_id;sensor_type;location;lat;lon;timestamp;P1;durP1;ratioP1;P2;durP2;ratioP2
23732;SDS011;12047;53.450;-2.286;2023-10-13T00:03:12;45.47;;;25.52;;
23732;SDS011;12047;53.450;-2.286;2023-10-13T00:08:15;42.45;;;26.35;;
23732;SDS011;12047;53.450;-2.286;2023-10-13T00:13:17;46.97;;;26.90;;
23732;SDS011;12047;53.450;-2.286;2023-10-13T00:18:19;44.85;;;26.27;;
23732;SDS011;12047;53.450;-2.286;2023-10-13T00:23:19;41.70;;;25.25;;
23732;SDS011;12047;53.450;-2.286;2023-10-13T00:28:24;44.03;;;25.40;;
23732;SDS011;12047;53.450;-2.286;2023-10-13T00:33:26;44.78;;;26.23;;
23732;SDS011;12047;53.450;-2.286;2023-10-13T00:38:27;43.75;;;26.02;;
23732;SDS011;12047;53.450;-2.286;2023-10-13T00:43:27;42.00;;;25.55;;
23732;SDS011;12047;53.450;-2.286;2023-10-13T00:48:28;41.65;;;26.05;;
23732;SDS011;12047;53.450;-2.286;2023-10-13T00:53:34;38.83;;;23.90;;
23732;SDS011;12047;53.450;-2.286;2023-10-13T00:58:44;36.25;;;24.13;;
23732;SDS011;12047;53.450;-2.286;2023-10-13T01:03:52;41.25;;;23.08;;
23732;SDS011;12047;53.450;-2.286;2023-10-13T01:09:02;36.70;;;22.52;;
23732;SDS011;12047;53.450;-2.286;2023-10-13T01:19:36;33.78;;;21.80;;
23732;SDS011;12047;53.450;-2.286;2023-10-13T01:24:42;35.38;;;21.50;;
23732;SDS011;12047;53.450;-2.286;2023-10-13T01:29:44;33.63;;;22.23;;
23732;SDS011;12047;53.450;-2.286;2023-10-13T01:34:50;31.85;;;20.25;;
23732;SDS011;12047;53.450;-2.286;2023-10-13T01:39:55;32.85;;;21.10;;
23732;SDS011;12047;53.450;-2.286;2023-10-13T01:44:58;30.23;;;19.90;;
23732;SDS011;12047;53.450;-2.286;2023-10-13T02:00:26;30.58;;;19.35;;
23732;SDS011;12047;53.450;-2.286;2023-10-13T02:05:27;27.45;;;18.25;;
23732;SDS011;12047;53.450;-2.286;2023-10-13T02:10:33;27.63;;;18.98;;
23732;SDS011;12047;53.450;-2.286;2023-10-13T02:15:33;27.60;;;17.63;;
23732;SDS011;12047;53.450;-2.286;2023-10-13T02:20:34;28.02;;;17.65;;
23732;SDS011;12047;53.450;-2.286;2023-10-13T02:25:42;27.13;;;17.73;;
23732;SDS011;12047;53.450;-2.286;2023-10-13T02:30:43;26.75;;;17.05;;
23732;SDS011;12047;53.450;-2.286;2023-10-13T02:35:44;25.88;;;16.17;;
23732;SDS011;12047;53.450;-2.286;2023-10-13T02:40:53;23.23;;;15.70;;
23732;SDS011;12047;53.450;-2.286;2023-10-13T02:45:55;21.55;;;14.18;;
23732;SDS011;12047;53.450;-2.286;2023-10-13T02:50:59;21.85;;;13.57;;
23732;SDS011;12047;53.450;-2.286;2023-10-13T03:01:08;20.65;;;13.25;;
23732;SDS011;12047;53.450;-2.286;2023-10-13T03:06:18;21.73;;;12.90;;
23732;SDS011;12047;53.450;-2.286;2023-10-13T03:11:24;20.20;;;12.70;;
23732;SDS011;12047;53.450;-2.286;2023-10-13T03:16:25;17.05;;;11.57;;
23732;SDS011;12047;53.450;-2.286;2023-10-13T03:21:29;19.00;;;11.65;;
23732;SDS011;12047;53.450;-2.286;2023-10-13T03:26:30;16.40;;;11.45;;
23732;SDS011;12047;53.450;-2.286;2023-10-13T03:31:37;14.32;;;10.02;;
23732;SDS011;12047;53.450;-2.286;2023-10-13T03:36:39;14.75;;;9.40;;
23732;SDS011;12047;53.450;-2.286;2023-10-13T03:41:58;14.65;;;9.25;;
23732;SDS011;12047;53.450;-2.286;2023-10-13T03:46:59;13.55;;;8.18;;
23732;SDS011;12047;53.450;-2.286;2023-10-13T03:52:18;9.38;;;7.10;;
23732;SDS011;12047;53.450;-2.286;2023-10-13T03:57:22;10.85;;;7.03;;
23732;SDS011;12047;53.450;-2.286;2023-10-13T04:02:27;11.68;;;7.13;;
23732;SDS011;12047;53.450;-2.286;2023-10-13T04:07:28;11.55;;;7.45;;
23732;SDS011;12047;53.450;-2.286;2023-10-13T04:13:00;11.68;;;6.57;;
23732;SDS011;12047;53.450;-2.286;2023-10-13T04:18:19;9.93;;;6.18;;
23732;SDS011;12047;53.450;-2.286;2023-10-13T04:23:47;9.95;;;5.75;;
23732;SDS011;12047;53.450;-2.286;2023-10-13T04:29:06;7.93;;;5.55;;
23732;SDS011;12047;53.450;-2.286;2023-10-13T04:34:10;8.00;;;5.47;;
23732;SDS011;12047;53.450;-2.286;2023-10-13T04:39:18;5.60;;;4.20;;
23732;SDS011;12047;53.450;-2.286;2023-10-13T04:44:29;5.80;;;4.18;;
23732;SDS011;12047;53.450;-2.286;2023-10-13T04:49:30;6.03;;;4.10;;
23732;SDS011;12047;53.450;-2.286;2023-10-13T04:54:35;6.93;;;4.00;;
23732;SDS011;12047;53.450;-2.286;2023-10-13T04:59:50;7.28;;;4.70;;
23732;SDS011;12047;53.450;-2.286;2023-10-13T05:05:13;6.90;;;4.30;;
23732;SDS011;12047;53.450;-2.286;2023-10-13T05:10:14;5.95;;;4.10;;
23732;SDS011;12047;53.450;-2.286;2023-10-13T05:15:33;6.65;;;4.28;;
23732;SDS011;12047;53.450;-2.286;2023-10-13T05:20:55;8.07;;;4.72;;
23732;SDS011;12047;53.450;-2.286;2023-10-13T05:26:14;6.32;;;4.07;;
23732;SDS011;12047;53.450;-2.286;2023-10-13T05:31:33;5.88;;;3.75;;
23732;SDS011;12047;53.450;-2.286;2023-10-13T05:36:52;4.82;;;3.38;;
23732;SDS011;12047;53.450;-2.286;2023-10-13T05:42:11;6.22;;;4.32;;
23732;SDS011;12047;53.450;-2.286;2023-10-13T05:47:30;5.88;;;4.20;;
23732;SDS011;12047;53.450;-2.286;2023-10-13T05:52:39;7.38;;;5.10;;
23732;SDS011;12047;53.450;-2.286;2023-10-13T05:57:58;8.10;;;5.07;;
23732;SDS011;12047;53.450;-2.286;2023-10-13T06:03:17;9.57;;;5.00;;
23732;SDS011;12047;53.450;-2.286;2023-10-13T06:08:36;7.00;;;4.80;;
23732;SDS011;12047;53.450;-2.286;2023-10-13T06:13:55;7.63;;;5.97;;
23732;SDS011;12047;53.450;-2.286;2023-10-13T06:19:14;9.43;;;5.90;;
23732;SDS011;12047;53.450;-2.286;2023-10-13T06:24:33;7.10;;;5.40;;
23732;SDS011;12047;53.450;-2.286;2023-10-13T06:29:51;7.05;;;5.50;;
23732;SDS011;12047;53.450;-2.286;2023-10-13T06:34:55;7.88;;;5.75;;
23732;SDS011;12047;53.450;-2.286;2023-10-13T06:40:09;9.63;;;6.40;;
23732;SDS011;12047;53.450;-2.286;2023-10-13T06:45:21;9.93;;;6.25;;
23732;SDS011;12047;53.450;-2.286;2023-10-13T06:50:22;8.38;;;6.00;;
23732;SDS011;12047;53.450;-2.286;2023-10-13T06:55:25;11.55;;;6.53;;
23732;SDS011;12047;53.450;-2.286;2023-10-13T07:00:28;7.43;;;5.45;;
23732;SDS011;12047;53.450;-2.286;2023-10-13T07:05:40;7.68;;;5.55;;
23732;SDS011;12047;53.450;-2.286;2023-10-13T07:11:02;10.10;;;6.30;;
23732;SDS011;12047;53.450;-2.286;2023-10-13T07:16:02;10.25;;;7.07;;
23732;SDS011;12047;53.450;-2.286;2023-10-13T07:21:08;14.18;;;8.00;;
23732;SDS011;12047;53.450;-2.286;2023-10-13T07:26:09;11.88;;;8.50;;
23732;SDS011;12047;53.450;-2.286;2023-10-13T07:31:15;18.20;;;9.63;;
23732;SDS011;12047;53.450;-2.286;2023-10-13T07:36:16;12.45;;;8.57;;
23732;SDS011;12047;53.450;-2.286;2023-10-13T07:41:33;11.13;;;8.10;;
23732;SDS011;12047;53.450;-2.286;2023-10-13T07:46:33;9.52;;;6.88;;
23732;SDS011;12047;53.450;-2.286;2023-10-13T07:51:35;9.77;;;6.22;;
23732;SDS011;12047;53.450;-2.286;2023-10-13T07:56:44;9.32;;;6.70;;
23732;SDS011;12047;53.450;-2.286;2023-10-13T08:01:45;12.10;;;7.20;;
23732;SDS011;12047;53.450;-2.286;2023-10-13T08:06:46;10.75;;;6.72;;
23732;SDS011;12047;53.450;-2.286;2023-10-13T08:11:48;11.20;;;6.90;;
23732;SDS011;12047;53.450;-2.286;2023-10-13T08:16:50;11.55;;;7.03;;
23732;SDS011;12047;53.450;-2.286;2023-10-13T08:21:59;9.98;;;6.95;;
23732;SDS011;12047;53.450;-2.286;2023-10-13T08:27:19;12.30;;;7.63;;
23732;SDS011;12047;53.450;-2.286;2023-10-13T08:32:34;10.10;;;6.97;;
23732;SDS011;12047;53.450;-2.286;2023-10-13T08:37:54;11.50;;;8.10;;
23732;SDS011;12047;53.450;-2.286;2023-10-13T08:42:54;10.97;;;7.30;;
23732;SDS011;12047;53.450;-2.286;2023-10-13T08:48:03;11.32;;;8.18;;
23732;SDS011;12047;53.450;-2.286;2023-10-13T08:53:19;12.15;;;8.75;;
23732;SDS011;12047;53.450;-2.286;2023-10-13T08:58:32;15.15;;;10.90;;
23732;SDS011;12047;53.450;-2.286;2023-10-13T09:03:52;15.15;;;10.05;;
23732;SDS011;12047;53.450;-2.286;2023-10-13T09:09:17;13.98;;;10.40;;
23732;SDS011;12047;53.450;-2.286;2023-10-13T09:14:39;9.10;;;7.47;;
23732;SDS011;12047;53.450;-2.286;2023-10-13T09:19:56;5.47;;;4.30;;
23732;SDS011;12047;53.450;-2.286;2023-10-13T09:24:59;4.90;;;2.92;;
23732;SDS011;12047;53.450;-2.286;2023-10-13T09:30:08;2.83;;;2.53;;
23732;SDS011;12047;53.450;-2.286;2023-10-13T09:35:24;4.22;;;1.92;;
23732;SDS011;12047;53.450;-2.286;2023-10-13T09:40:27;3.42;;;2.10;;
23732;SDS011;12047;53.450;-2.286;2023-10-13T09:45:38;3.00;;;2.05;;
23732;SDS011;12047;53.450;-2.286;2023-10-13T09:50:41;4.05;;;2.35;;
23732;SDS011;12047;53.450;-2.286;2023-10-13T09:55:48;3.20;;;2.80;;
23732;SDS011;12047;53.450;-2.286;2023-10-13T10:00:56;5.22;;;3.20;;
23732;SDS011;12047;53.450;-2.286;2023-10-13T10:06:07;7.05;;;4.50;;
23732;SDS011;12047;53.450;-2.286;2023-10-13T10:11:19;8.73;;;6.50;;
23732;SDS011;12047;53.450;-2.286;2023-10-13T10:16:29;6.82;;;5.93;;
23732;SDS011;12047;53.450;-2.286;2023-10-13T10:21:38;5.75;;;5.15;;
23732;SDS011;12047;53.450;-2.286;2023-10-13T10:26:56;6.38;;;4.60;;
23732;SDS011;12047;53.450;-2.286;2023-10-13T10:32:00;5.82;;;4.57;;
23732;SDS011;12047;53.450;-2.286;2023-10-13T10:37:01;5.07;;;4.40;;
23732;SDS011;12047;53.450;-2.286;2023-10-13T10:42:09;5.00;;;4.40;;
23732;SDS011;12047;53.450;-2.286;2023-10-13T10:47:22;6.78;;;4.72;;
23732;SDS011;12047;53.450;-2.286;2023-10-13T10:52:33;6.38;;;3.25;;
23732;SDS011;12047;53.450;-2.286;2023-10-13T10:57:39;5.07;;;2.28;;
23732;SDS011;12047;53.450;-2.286;2023-10-13T11:02:43;4.00;;;2.20;;
23732;SDS011;12047;53.450;-2.286;2023-10-13T11:07:55;4.20;;;1.35;;
23732;SDS011;12047;53.450;-2.286;2023-10-13T11:12:59;2.92;;;1.33;;
23732;SDS011;12047;53.450;-2.286;2023-10-13T11:18:14;3.97;;;2.20;;
23732;SDS011;12047;53.450;-2.286;2023-10-13T11:23:21;1.93;;;0.83;;
23732;SDS011;12047;53.450;-2.286;2023-10-13T11:28:28;0.95;;;0.50;;
23732;SDS011;12047;53.450;-2.286;2023-10-13T11:33:29;1.17;;;0.60;;
23732;SDS011;12047;53.450;-2.286;2023-10-13T11:38:30;3.10;;;0.73;;
23732;SDS011;12047;53.450;-2.286;2023-10-13T11:43:44;4.05;;;0.93;;
23732;SDS011;12047;53.450;-2.286;2023-10-13T11:48:49;5.07;;;0.90;;
23732;SDS011;12047;53.450;-2.286;2023-10-13T11:53:54;3.22;;;1.00;;
23732;SDS011;12047;53.450;-2.286;2023-10-13T11:58:55;8.25;;;1.10;;
23732;SDS011;12047;53.450;-2.286;2023-10-13T12:04:16;7.03;;;1.65;;
23732;SDS011;12047;53.450;-2.286;2023-10-13T12:09:35;6.65;;;1.70;;
23732;SDS011;12047;53.450;-2.286;2023-10-13T12:14:52;6.57;;;2.10;;
23732;SDS011;12047;53.450;-2.286;2023-10-13T12:19:59;6.75;;;2.40;;
23732;SDS011;12047;53.450;-2.286;2023-10-13T12:25:00;6.85;;;1.95;;
23732;SDS011;12047;53.450;-2.286;2023-10-13T12:30:04;8.40;;;2.42;;
23732;SDS011;12047;53.450;-2.286;2023-10-13T12:35:13;4.95;;;2.03;;
23732;SDS011;12047;53.450;-2.286;2023-10-13T12:40:14;7.45;;;2.33;;
23732;SDS011;12047;53.450;-2.286;2023-10-13T12:45:48;5.82;;;2.30;;
23732;SDS011;12047;53.450;-2.286;2023-10-13T12:51:08;10.82;;;2.10;;
23732;SDS011;12047;53.450;-2.286;2023-10-13T12:56:21;9.02;;;2.28;;
23732;SDS011;12047;53.450;-2.286;2023-10-13T13:01:28;6.68;;;2.30;;
23732;SDS011;12047;53.450;-2.286;2023-10-13T13:06:33;8.00;;;1.67;;
23732;SDS011;12047;53.450;-2.286;2023-10-13T13:11:33;7.78;;;1.80;;
23732;SDS011;12047;53.450;-2.286;2023-10-13T13:16:39;8.02;;;2.63;;
23732;SDS011;12047;53.450;-2.286;2023-10-13T13:21:39;7.15;;;2.25;;
23732;SDS011;12047;53.450;-2.286;2023-10-13T13:26:40;10.18;;;2.90;;
23732;SDS011;12047;53.450;-2.286;2023-10-13T13:31:40;5.85;;;1.90;;
23732;SDS011;12047;53.450;-2.286;2023-10-13T13:36:42;10.57;;;2.60;;
23732;SDS011;12047;53.450;-2.286;2023-10-13T13:41:44;9.65;;;2.92;;
23732;SDS011;12047;53.450;-2.286;2023-10-13T13:46:45;9.10;;;2.13;;
23732;SDS011;12047;53.450;-2.286;2023-10-13T13:51:45;13.05;;;2.20;;
23732;SDS011;12047;53.450;-2.286;2023-10-13T13:56:52;10.80;;;2.50;;
23732;SDS011;12047;53.450;-2.286;2023-10-13T14:01:52;11.90;;;2.30;;
23732;SDS011;12047;53.450;-2.286;2023-10-13T14:06:53;11.35;;;2.80;;
23732;SDS011;12047;53.450;-2.286;2023-10-13T14:11:53;18.42;;;4.18;;
23732;SDS011;12047;53.450;-2.286;2023-10-13T14:17:16;13.15;;;3.35;;
23732;SDS011;12047;53.450;-2.286;2023-10-13T14:22:17;13.73;;;3.90;;
23732;SDS011;12047;53.450;-2.286;2023-10-13T14:27:17;19.08;;;5.63;;
23732;SDS011;12047;53.450;-2.286;2023-10-13T14:32:19;18.27;;;4.63;;
23732;SDS011;12047;53.450;-2.286;2023-10-13T14:37:24;22.08;;;3.97;;
23732;SDS011;12047;53.450;-2.286;2023-10-13T14:42:29;20.65;;;6.55;;
23732;SDS011;12047;53.450;-2.286;2023-10-13T14:47:35;12.55;;;4.70;;
23732;SDS011;12047;53.450;-2.286;2023-10-13T14:52:39;17.67;;;4.47;;
23732;SDS011;12047;53.450;-2.286;2023-10-13T14:57:40;18.25;;;4.20;;
23732;SDS011;12047;53.450;-2.286;2023-10-13T15:02:41;17.40;;;4.35;;
23732;SDS011;12047;53.450;-2.286;2023-10-13T15:07:43;23.60;;;3.60;;
23732;SDS011;12047;53.450;-2.286;2023-10-13T15:12:45;17.55;;;3.63;;
23732;SDS011;12047;53.450;-2.286;2023-10-13T15:17:45;18.70;;;3.28;;
23732;SDS011;12047;53.450;-2.286;2023-10-13T15:22:47;13.60;;;2.20;;
23732;SDS011;12047;53.450;-2.286;2023-10-13T15:27:57;11.80;;;2.80;;
23732;SDS011;12047;53.450;-2.286;2023-10-13T15:33:02;14.05;;;2.47;;
23732;SDS011;12047;53.450;-2.286;2023-10-13T15:38:05;12.55;;;2.92;;
23732;SDS011;12047;53.450;-2.286;2023-10-13T15:43:06;14.98;;;2.70;;
23732;SDS011;12047;53.450;-2.286;2023-10-13T15:48:07;15.15;;;2.85;;
23732;SDS011;12047;53.450;-2.286;2023-10-13T15:53:09;12.20;;;2.65;;
23732;SDS011;12047;53.450;-2.286;2023-10-13T15:58:12;12.68;;;3.42;;
23732;SDS011;12047;53.450;-2.286;2023-10-13T16:03:13;10.65;;;2.50;;
23732;SDS011;12047;53.450;-2.286;2023-10-13T16:08:14;10.43;;;2.50;;
23732;SDS011;12047;53.450;-2.286;2023-10-13T16:13:14;18.05;;;2.85;;
23732;SDS011;12047;53.450;-2.286;2023-10-13T16:18:15;15.70;;;2.58;;
23732;SDS011;12047;53.450;-2.286;2023-10-13T16:23:21;18.52;;;3.08;;
23732;SDS011;12047;53.450;-2.286;2023-10-13T16:28:23;17.10;;;3.58;;
23732;SDS011;12047;53.450;-2.286;2023-10-13T16:33:24;11.68;;;3.25;;
23732;SDS011;12047;53.450;-2.286;2023-10-13T16:38:24;17.10;;;4.20;;
23732;SDS011;12047;53.450;-2.286;2023-10-13T16:43:25;15.00;;;4.53;;
23732;SDS011;12047;53.450;-2.286;2023-10-13T16:48:26;16.90;;;3.72;;
23732;SDS011;12047;53.450;-2.286;2023-10-13T16:53:31;16.30;;;4.78;;
23732;SDS011;12047;53.450;-2.286;2023-10-13T16:58:32;16.83;;;4.15;;
23732;SDS011;12047;53.450;-2.286;2023-10-13T17:03:36;17.63;;;3.13;;
23732;SDS011;12047;53.450;-2.286;2023-10-13T17:08:37;13.68;;;3.38;;
23732;SDS011;12047;53.450;-2.286;2023-10-13T17:13:39;7.80;;;2.85;;
23732;SDS011;12047;53.450;-2.286;2023-10-13T17:18:41;19.52;;;3.28;;
23732;SDS011;12047;53.450;-2.286;2023-10-13T17:23:46;17.50;;;3.30;;
23732;SDS011;12047;53.450;-2.286;2023-10-13T17:28:50;14.83;;;3.00;;
23732;SDS011;12047;53.450;-2.286;2023-10-13T17:33:50;13.93;;;3.13;;
23732;SDS011;12047;53.450;-2.286;2023-10-13T17:38:51;12.40;;;2.78;;
23732;SDS011;12047;53.450;-2.286;2023-10-13T17:43:52;12.98;;;2.38;;
23732;SDS011;12047;53.450;-2.286;2023-10-13T17:48:53;12.63;;;2.63;;
23732;SDS011;12047;53.450;-2.286;2023-10-13T17:53:55;10.93;;;2.70;;
23732;SDS011;12047;53.450;-2.286;2023-10-13T17:58:57;10.75;;;2.78;;
23732;SDS011;12047;53.450;-2.286;2023-10-13T18:03:59;16.58;;;3.78;;
23732;SDS011;12047;53.450;-2.286;2023-10-13T18:09:04;14.05;;;2.90;;
23732;SDS011;12047;53.450;-2.286;2023-10-13T18:14:05;10.45;;;2.90;;
23732;SDS011;12047;53.450;-2.286;2023-10-13T18:19:06;16.33;;;3.53;;
23732;SDS011;12047;53.450;-2.286;2023-10-13T18:24:07;20.63;;;3.55;;
23732;SDS011;12047;53.450;-2.286;2023-10-13T18:29:08;17.70;;;3.35;;
23732;SDS011;12047;53.450;-2.286;2023-10-13T18:34:09;14.40;;;3.17;;
23732;SDS011;12047;53.450;-2.286;2023-10-13T18:39:11;17.40;;;3.00;;
23732;SDS011;12047;53.450;-2.286;2023-10-13T18:44:18;15.57;;;3.20;;
23732;SDS011;12047;53.450;-2.286;2023-10-13T18:49:20;22.55;;;3.10;;
23732;SDS011;12047;53.450;-2.286;2023-10-13T18:54:21;21.90;;;3.15;;
23732;SDS011;12047;53.450;-2.286;2023-10-13T18:59:22;15.98;;;2.92;;
23732;SDS011;12047;53.450;-2.286;2023-10-13T19:04:23;12.57;;;3.03;;
23732;SDS011;12047;53.450;-2.286;2023-10-13T19:09:24;16.65;;;3.13;;
23732;SDS011;12047;53.450;-2.286;2023-10-13T19:14:27;13.23;;;2.70;;
23732;SDS011;12047;53.450;-2.286;2023-10-13T19:19:28;12.10;;;2.90;;
23732;SDS011;12047;53.450;-2.286;2023-10-13T19:24:32;8.77;;;1.55;;
23732;SDS011;12047;53.450;-2.286;2023-10-13T19:29:33;12.63;;;2.33;;
23732;SDS011;12047;53.450;-2.286;2023-10-13T19:34:34;10.40;;;2.13;;
23732;SDS011;12047;53.450;-2.286;2023-10-13T19:39:34;109.75;;;68.57;;
23732;SDS011;12047;53.450;-2.286;2023-10-13T19:44:40;15.15;;;2.58;;
23732;SDS011;12047;53.450;-2.286;2023-10-13T19:49:43;11.07;;;2.42;;
23732;SDS011;12047;53.450;-2.286;2023-10-13T19:54:45;9.13;;;2.10;;
23732;SDS011;12047;53.450;-2.286;2023-10-13T19:59:54;13.90;;;2.10;;
23732;SDS011;12047;53.450;-2.286;2023-10-13T20:04:55;8.10;;;1.92;;
23732;SDS011;12047;53.450;-2.286;2023-10-13T20:09:59;13.07;;;2.05;;
23732;SDS011;12047;53.450;-2.286;2023-10-13T20:15:02;9.30;;;3.40;;
23732;SDS011;12047;53.450;-2.286;2023-10-13T20:25:59;12.30;;;2.88;;
23732;SDS011;12047;53.450;-2.286;2023-10-13T20:31:03;14.35;;;2.25;;
23732;SDS011;12047;53.450;-2.286;2023-10-13T20:36:10;8.98;;;1.90;;
23732;SDS011;12047;53.450;-2.286;2023-10-13T20:41:11;9.85;;;1.88;;
23732;SDS011;12047;53.450;-2.286;2023-10-13T20:46:20;9.10;;;1.77;;
23732;SDS011;12047;53.450;-2.286;2023-10-13T20:51:24;10.90;;;1.50;;
23732;SDS011;12047;53.450;-2.286;2023-10-13T20:56:34;7.82;;;2.40;;
23732;SDS011;12047;53.450;-2.286;2023-10-13T21:01:37;11.80;;;2.05;;
23732;SDS011;12047;53.450;-2.286;2023-10-13T21:06:45;12.48;;;2.08;;
23732;SDS011;12047;53.450;-2.286;2023-10-13T21:11:57;12.55;;;2.13;;
23732;SDS011;12047;53.450;-2.286;2023-10-13T21:17:04;14.85;;;2.30;;
23732;SDS011;12047;53.450;-2.286;2023-10-13T21:27:31;15.38;;;2.42;;
23732;SDS011;12047;53.450;-2.286;2023-10-13T21:32:32;11.80;;;2.63;;
23732;SDS011;12047;53.450;-2.286;2023-10-13T21:37:53;11.95;;;2.15;;
23732;SDS011;12047;53.450;-2.286;2023-10-13T21:42:57;13.88;;;2.83;;
23732;SDS011;12047;53.450;-2.286;2023-10-13T21:48:01;11.50;;;3.55;;
23732;SDS011;12047;53.450;-2.286;2023-10-13T21:53:11;16.52;;;3.85;;
23732;SDS011;12047;53.450;-2.286;2023-10-13T21:58:13;18.17;;;2.50;;
23732;SDS011;12047;53.450;-2.286;2023-10-13T22:03:16;15.55;;;3.90;;
23732;SDS011;12047;53.450;-2.286;2023-10-13T22:08:29;19.42;;;3.58;;
23732;SDS011;12047;53.450;-2.286;2023-10-13T22:13:29;21.80;;;3.67;;
23732;SDS011;12047;53.450;-2.286;2023-10-13T22:18:33;19.17;;;3.45;;
23732;SDS011;12047;53.450;-2.286;2023-10-13T22:23:42;14.93;;;2.83;;
23732;SDS011;12047;53.450;-2.286;2023-10-13T22:28:44;20.13;;;3.53;;
23732;SDS011;12047;53.450;-2.286;2023-10-13T22:33:56;17.38;;;3.20;;
23732;SDS011;12047;53.450;-2.286;2023-10-13T22:38:57;20.17;;;7.45;;
23732;SDS011;12047;53.450;-2.286;2023-10-13T22:43:59;17.70;;;5.05;;
23732;SDS011;12047;53.450;-2.286;2023-10-13T22:49:02;21.02;;;5.60;;
23732;SDS011;12047;53.450;-2.286;2023-10-13T22:54:08;23.52;;;4.65;;
23732;SDS011;12047;53.450;-2.286;2023-10-13T22:59:11;20.45;;;3.55;;
23732;SDS011;12047;53.450;-2.286;2023-10-13T23:04:12;20.67;;;4.85;;
23732;SDS011;12047;53.450;-2.286;2023-10-13T23:09:15;25.60;;;6.18;;
23732;SDS011;12047;53.450;-2.286;2023-10-13T23:14:24;23.38;;;4.72;;
23732;SDS011;12047;53.450;-2.286;2023-10-13T23:19:43;24.80;;;4.97;;
23732;SDS011;12047;53.450;-2.286;2023-10-13T23:24:45;21.73;;;4.40;;
23732;SDS011;12047;53.450;-2.286;2023-10-13T23:29:46;15.57;;;3.47;;
23732;SDS011;12047;53.450;-2.286;2023-10-13T23:34:53;14.27;;;3.45;;
23732;SDS011;12047;53.450;-2.286;2023-10-13T23:39:58;16.65;;;3.08;;
23732;SDS011;12047;53.450;-2.286;2023-10-13T23:45:11;23.52;;;3.83;;
23732;SDS011;12047;53.450;-2.286;2023-10-13T23:50:21;26.00;;;4.20;;
23732;SDS011;12047;53.450;-2.286;2023-10-13T23:55:27;17.98;;;3.75;;
